Time;durP1;ratioP1;P1;durP2;ratioP2;P2;SDS_P1;SDS_P2;PMS_P1;PMS_P2;Temp;Humidity;BMP_temperature;BMP_pressure;BME280_temperature;BME280_humidity;BME280_pressure;Samples;Min_cycle;Max_cycle;Signal;HPM_P1;HPM_P2
2021/05/13 00:00:19;;;;;;;;;;;;;;;18.05;51.78;97913.22;5054333;28;19944;-70
2021/05/13 00:02:45;;;;;;;;;;;;;;;18.05;51.65;97910.41;5060584;28;19912;-70
2021/05/13 00:05:11;;;;;;;;;;;;;;;18.05;51.67;97910.41;5052980;28;19916;-70
2021/05/13 00:07:36;;;;;;;;;;;;;;;18.04;51.85;97911.63;5057905;28;19916;-72
2021/05/13 00:10:07;;;;;;;;;;;;;;;18.04;51.87;97909.63;5063647;28;20389;-69
2021/05/13 00:15:05;;;;;;;;;;;;;;;18.04;51.85;97911.63;5057730;28;19916;-69
2021/05/13 00:17:30;;;;;;;;;;;;;;;18.04;51.76;97911.63;5059664;28;20425;-70
2021/05/13 00:19:55;;;;;;;;;;;;;;;18.04;51.66;97906.84;5059166;28;20026;-71
2021/05/13 00:22:22;;;;;;;;;;;;;;;18.04;51.81;97906.84;5063307;28;19921;-71
2021/05/13 00:24:48;;;;;;;;;;;;;;;18.02;51.77;97894.50;5056904;28;19951;-71
2021/05/13 00:27:13;;;;;;;;;;;;;;;18.02;51.93;97889.66;5061684;28;20371;-71
2021/05/13 00:29:38;;;;;;;;;;;;;;;18.01;51.84;97881.72;5063170;28;20020;-70
2021/05/13 00:32:03;;;;;;;;;;;;;;;18.01;51.75;97879.72;5053288;28;19944;-70
2021/05/13 00:34:29;;;;;;;;;;;;;;;18.02;51.87;97883.28;5056150;28;19912;-71
2021/05/13 00:36:54;;;;;;;;;;;;;;;18.02;51.89;97872.09;5060161;28;19986;-69
2021/05/13 00:39:19;;;;;;;;;;;;;;;18.01;51.80;97879.72;5052255;28;20425;-70
2021/05/13 00:41:44;;;;;;;;;;;;;;;18.00;51.76;97871.75;5060274;28;19917;-69
2021/05/13 00:44:10;;;;;;;;;;;;;;;18.00;51.67;97868.97;5054815;28;19920;-70
2021/05/13 00:46:35;;;;;;;;;;;;;;;18.00;51.65;97874.56;5054215;28;19912;-70
2021/05/13 00:49:10;;;;;;;;;;;;;;;18.00;51.79;97878.13;5057218;28;20385;-69
2021/05/13 00:51:35;;;;;;;;;;;;;;;18.00;51.76;97878.13;5052349;28;19939;-69
2021/05/13 00:54:01;;;;;;;;;;;;;;;17.99;51.67;97876.56;5054376;28;20369;-70
2021/05/13 00:56:26;;;;;;;;;;;;;;;18.00;51.56;97882.94;5053490;28;20351;-71
2021/05/13 00:58:53;;;;;;;;;;;;;;;18.00;51.81;97882.94;5063730;28;19967;-69
2021/05/13 01:01:20;;;;;;;;;;;;;;;18.00;51.77;97891.34;5063102;28;20335;-71
2021/05/13 01:03:46;;;;;;;;;;;;;;;17.99;51.76;97886.97;5056370;28;20388;-69
2021/05/13 01:06:12;;;;;;;;;;;;;;;17.99;51.68;97886.97;5054715;28;19916;-69
2021/05/13 01:08:37;;;;;;;;;;;;;;;17.99;51.75;97890.56;5054314;28;20366;-69
2021/05/13 01:11:02;;;;;;;;;;;;;;;17.97;51.64;97890.22;5055790;28;19927;-69
2021/05/13 01:13:29;;;;;;;;;;;;;;;17.97;51.84;97893.03;5056902;28;20408;-69
2021/05/13 01:16:08;;;;;;;;;;;;;;;17.98;51.71;97896.63;5056757;28;20007;-69
2021/05/13 01:18:35;;;;;;;;;;;;;;;17.96;51.60;97883.84;5056468;28;20015;-70
2021/05/13 01:21:01;;;;;;;;;;;;;;;17.96;51.70;97889.44;5058929;28;19917;-71
2021/05/13 01:23:26;;;;;;;;;;;;;;;17.96;51.64;97888.66;5059358;28;19919;-69
2021/05/13 01:25:53;;;;;;;;;;;;;;;17.95;51.70;97892.66;5057737;28;19916;-70
2021/05/13 01:28:19;;;;;;;;;;;;;;;17.95;51.77;97899.03;5062718;28;19917;-70
2021/05/13 01:30:44;;;;;;;;;;;;;;;17.95;51.62;97887.84;5052690;28;19970;-69
2021/05/13 01:33:11;;;;;;;;;;;;;;;17.95;51.72;97878.66;5056627;28;20361;-69
2021/05/13 01:35:36;;;;;;;;;;;;;;;17.94;51.81;97880.69;5059104;28;19912;-70
2021/05/13 01:38:03;;;;;;;;;;;;;;;17.93;51.80;97873.53;5053899;28;19913;-70
2021/05/13 01:40:28;;;;;;;;;;;;;;;17.92;51.89;97871.94;5058363;28;19912;-69
2021/05/13 01:42:53;;;;;;;;;;;;;;;17.93;51.79;97869.94;5053499;28;20012;-70
2021/05/13 01:45:18;;;;;;;;;;;;;;;17.92;51.87;97874.75;5050154;28;20369;-71
2021/05/13 01:47:43;;;;;;;;;;;;;;;17.93;51.66;97865.13;5054026;28;20442;-69
2021/05/13 01:50:09;;;;;;;;;;;;;;;17.92;51.82;97865.56;5058704;28;20501;-71
2021/05/13 01:52:35;;;;;;;;;;;;;;;17.92;51.70;97863.56;5058018;28;19962;-70
2021/05/13 01:55:00;;;;;;;;;;;;;;;17.91;51.84;97861.22;5054890;28;19920;-69
2021/05/13 01:57:26;;;;;;;;;;;;;;;17.91;51.81;97864.78;5056667;28;19917;-70
2021/05/13 01:59:51;;;;;;;;;;;;;;;17.92;51.69;97862.78;5056246;28;19952;-70
2021/05/13 02:02:20;;;;;;;;;;;;;;;17.91;51.81;97873.19;5051425;28;19921;-70
2021/05/13 02:04:45;;;;;;;;;;;;;;;17.89;51.83;97863.66;5062551;28;20007;-69
2021/05/13 02:07:10;;;;;;;;;;;;;;;17.88;52.00;97873.28;5060379;28;20003;-71
2021/05/13 02:09:35;;;;;;;;;;;;;;;17.87;51.93;97866.09;5059863;28;19956;-69
2021/05/13 02:12:03;;;;;;;;;;;;;;;17.88;51.72;97862.88;5055374;28;19924;-69
2021/05/13 02:14:28;;;;;;;;;;;;;;;17.88;51.78;97860.09;5058112;28;20397;-70
2021/05/13 02:16:54;;;;;;;;;;;;;;;17.88;51.75;97862.88;5051859;28;19921;-69
2021/05/13 02:19:19;;;;;;;;;;;;;;;17.89;51.68;97860.88;5054732;28;19959;-70
2021/05/13 02:21:44;;;;;;;;;;;;;;;17.87;51.79;97852.91;5057401;28;20389;-70
2021/05/13 02:24:09;;;;;;;;;;;;;;;17.88;51.87;97856.50;5058472;28;19932;-70
2021/05/13 02:26:34;;;;;;;;;;;;;;;17.88;51.90;97850.91;5054957;28;20392;-69
2021/05/13 02:29:00;;;;;;;;;;;;;;;17.89;51.79;97846.88;5058226;28;20331;-70
2021/05/13 02:31:25;;;;;;;;;;;;;;;17.88;51.73;97846.09;5059322;28;19925;-69
2021/05/13 02:33:50;;;;;;;;;;;;;;;17.88;51.86;97839.72;5055598;28;19916;-69
2021/05/13 02:36:15;;;;;;;;;;;;;;;17.87;51.76;97836.13;5048905;28;19913;-69
2021/05/13 02:38:41;;;;;;;;;;;;;;;17.85;51.80;97832.97;5064851;28;19916;-70
2021/05/13 02:41:06;;;;;;;;;;;;;;;17.86;51.78;97831.72;5056660;28;20012;-69
2021/05/13 02:43:31;;;;;;;;;;;;;;;17.86;51.67;97822.56;5062928;28;19923;-71
2021/05/13 02:45:56;;;;;;;;;;;;;;;17.85;52.06;97818.19;5056480;28;19925;-70
2021/05/13 02:48:22;;;;;;;;;;;;;;;17.86;51.87;97823.34;5053042;28;20373;-69
2021/05/13 02:50:47;;;;;;;;;;;;;;;17.85;51.81;97815.41;5053483;28;19917;-70
2021/05/13 02:53:13;;;;;;;;;;;;;;;17.85;51.68;97816.19;5053615;28;19916;-70
2021/05/13 02:55:39;;;;;;;;;;;;;;;17.84;51.95;97809.00;5059089;28;20097;-70
2021/05/13 02:58:04;;;;;;;;;;;;;;;17.84;51.81;97811.81;5053791;28;19916;-70
2021/05/13 03:02:55;;;;;;;;;;;;;;;17.84;51.69;97811.03;5052779;28;19915;-70
2021/05/13 03:05:25;;;;;;;;;;;;;;;17.84;51.94;97809.00;5055311;28;19916;-70
2021/05/13 03:07:53;;;;;;;;;;;;;;;17.84;51.89;97811.03;5053068;28;20289;-70
2021/05/13 03:10:43;;;;;;;;;;;;;;;17.82;51.83;97800.28;5054361;28;19920;-71
2021/05/13 03:13:06;;;;;;;;;;;;;;;17.84;51.66;97808.22;5058515;28;19971;-70
2021/05/13 03:15:31;;;;;;;;;;;;;;;17.83;51.62;97801.06;5054751;28;19912;-70
2021/05/13 03:17:57;;;;;;;;;;;;;;;17.82;51.67;97800.28;5055131;28;19917;-69
2021/05/13 03:20:27;;;;;;;;;;;;;;;17.82;51.79;97800.28;5054624;28;19917;-70
2021/05/13 03:22:56;;;;;;;;;;;;;;;17.81;51.60;97798.72;5055380;28;19996;-70
2021/05/13 03:25:27;;;;;;;;;;;;;;;17.80;51.83;97788.75;5057954;28;19918;-69
2021/05/13 03:27:55;;;;;;;;;;;;;;;17.80;51.72;97797.16;5055203;28;19912;-70
2021/05/13 03:30:24;;;;;;;;;;;;;;;17.78;52.01;97788.41;5058608;28;20373;-70
2021/05/13 03:32:50;;;;;;;;;;;;;;;17.79;51.79;97791.97;5059177;28;19948;-69
2021/05/13 03:35:15;;;;;;;;;;;;;;;17.78;51.95;97782.00;5058739;28;19986;-70
2021/05/13 03:37:40;;;;;;;;;;;;;;;17.78;51.92;97782.81;5052933;28;20490;-70
2021/05/13 03:40:06;;;;;;;;;;;;;;;17.83;51.97;97778.69;5053113;28;19972;-69
2021/05/13 03:42:31;;;;;;;;;;;;;;;17.83;51.69;97787.88;5055470;28;19912;-70
2021/05/13 03:44:56;;;;;;;;;;;;;;;17.83;51.78;97779.47;5053566;28;20292;-70
2021/05/13 03:47:22;;;;;;;;;;;;;;;17.88;51.96;97775.34;5053183;28;20396;-69
2021/05/13 03:49:47;;;;;;;;;;;;;;;17.85;51.90;97770.63;5054003;28;19919;-70
2021/05/13 03:52:12;;;;;;;;;;;;;;;17.83;51.98;97776.66;5053256;28;19916;-70
2021/05/13 03:54:37;;;;;;;;;;;;;;;17.80;52.20;97766.38;5052565;28;19920;-70
2021/05/13 03:57:03;;;;;;;;;;;;;;;17.79;52.14;97770.41;5052514;28;19967;-70
2021/05/13 03:59:33;;;;;;;;;;;;;;;17.78;52.28;97768.03;5055345;28;19971;-69
2021/05/13 04:04:27;;;;;;;;;;;;;;;17.77;52.40;97763.66;5059014;28;19917;-70
2021/05/13 04:06:52;;;;;;;;;;;;;;;17.77;52.37;97758.06;5052611;28;19921;-70
2021/05/13 04:09:17;;;;;;;;;;;;;;;17.78;52.05;97759.63;5058391;28;19962;-70
2021/05/13 04:11:42;;;;;;;;;;;;;;;17.77;52.00;97753.25;5058729;28;19923;-69
2021/05/13 04:14:08;;;;;;;;;;;;;;;17.77;52.32;97753.25;5059283;28;20115;-70
2021/05/13 04:16:36;;;;;;;;;;;;;;;17.76;52.05;97748.09;5060028;28;19916;-70
2021/05/13 04:19:01;;;;;;;;;;;;;;;17.76;52.14;97742.50;5059455;28;19924;-70
2021/05/13 04:21:28;;;;;;;;;;;;;;;17.77;52.48;97752.47;5061915;28;19916;-70
2021/05/13 04:23:53;;;;;;;;;;;;;;;17.75;52.32;97750.13;5059110;28;19938;-70
2021/05/13 04:26:18;;;;;;;;;;;;;;;17.75;52.41;97744.53;5059567;28;20380;-70
2021/05/13 04:28:43;;;;;;;;;;;;;;;17.75;52.22;97743.75;5061878;28;20331;-69
2021/05/13 04:31:09;;;;;;;;;;;;;;;17.74;52.19;97740.16;5058490;28;19925;-69
2021/05/13 04:33:34;;;;;;;;;;;;;;;17.73;52.14;97741.41;5060113;28;19999;-69
2021/05/13 04:36:00;;;;;;;;;;;;;;;17.75;52.26;97749.34;5055616;28;19994;-70
2021/05/13 04:38:25;;;;;;;;;;;;;;;17.73;52.34;97747.00;5051575;28;19916;-69
2021/05/13 04:40:52;;;;;;;;;;;;;;;17.74;52.51;97745.75;5061194;28;20328;-70
2021/05/13 04:43:17;;;;;;;;;;;;;;;17.73;52.19;97747.00;5060465;28;19917;-69
2021/05/13 04:45:42;;;;;;;;;;;;;;;17.75;52.31;97746.53;5061608;28;19913;-70
2021/05/13 04:48:12;;;;;;;;;;;;;;;17.73;52.28;97744.19;5059049;28;19920;-70
2021/05/13 04:50:37;;;;;;;;;;;;;;;17.75;52.21;97743.75;5059365;28;20831;-70
2021/05/13 04:53:08;;;;;;;;;;;;;;;17.72;52.17;97739.03;5053675;28;19917;-69
2021/05/13 04:55:33;;;;;;;;;;;;;;;17.73;52.28;97743.41;5056762;28;20311;-69
2021/05/13 04:57:58;;;;;;;;;;;;;;;17.73;52.28;97743.41;5063862;28;19948;-70
2021/05/13 05:00:23;;;;;;;;;;;;;;;17.72;52.32;97742.63;5065133;28;19924;-69
2021/05/13 05:02:49;;;;;;;;;;;;;;;17.72;52.18;97734.25;5054542;28;20925;-70
2021/05/13 05:05:14;;;;;;;;;;;;;;;17.71;52.21;97732.66;5050434;28;20354;-70
2021/05/13 05:07:39;;;;;;;;;;;;;;;17.74;52.10;97737.38;5050225;28;20469;-70
2021/05/13 05:10:05;;;;;;;;;;;;;;;17.73;52.18;97726.63;5050676;28;19940;-69
2021/05/13 05:12:30;;;;;;;;;;;;;;;17.74;52.25;97736.59;5050808;28;19912;-70
2021/05/13 05:14:57;;;;;;;;;;;;;;;17.73;52.11;97723.81;5050874;28;20292;-70
2021/05/13 05:17:22;;;;;;;;;;;;;;;17.71;52.21;97724.28;5055997;28;19968;-70
2021/05/13 05:19:47;;;;;;;;;;;;;;;17.72;52.18;97725.84;5050277;28;20418;-70
2021/05/13 05:22:13;;;;;;;;;;;;;;;17.71;52.15;97732.66;5050914;28;19940;-70
2021/05/13 05:24:39;;;;;;;;;;;;;;;17.73;52.36;97729.44;5050464;28;19916;-71
2021/05/13 05:27:04;;;;;;;;;;;;;;;17.71;52.22;97731.84;5050317;28;19913;-70
2021/05/13 05:29:29;;;;;;;;;;;;;;;17.71;52.21;97720.66;5050226;28;20431;-70
2021/05/13 05:31:55;;;;;;;;;;;;;;;17.70;52.46;97722.69;5049491;28;20357;-70
2021/05/13 05:34:20;;;;;;;;;;;;;;;17.70;52.36;97722.69;5049231;28;19965;-69
2021/05/13 05:36:45;;;;;;;;;;;;;;;17.69;52.36;97719.06;5051699;28;19913;-70
2021/05/13 05:39:10;;;;;;;;;;;;;;;17.70;52.50;97708.69;5050048;28;19920;-70
2021/05/13 05:41:35;;;;;;;;;;;;;;;17.71;52.24;97718.69;5052055;28;20404;-69
2021/05/13 05:44:01;;;;;;;;;;;;;;;17.69;52.35;97713.47;5052558;28;20277;-70
2021/05/13 05:46:26;;;;;;;;;;;;;;;17.69;52.21;97712.69;5058406;28;19912;-70
2021/05/13 05:48:51;;;;;;;;;;;;;;;17.69;52.40;97710.69;5055974;28;19912;-70
2021/05/13 05:51:17;;;;;;;;;;;;;;;17.69;52.42;97721.88;5048619;28;19917;-69
2021/05/13 05:53:42;;;;;;;;;;;;;;;17.70;52.35;97717.09;5055619;28;19919;-70
2021/05/13 05:56:07;;;;;;;;;;;;;;;17.70;52.13;97717.09;5059475;28;20441;-69
2021/05/13 05:58:32;;;;;;;;;;;;;;;17.69;52.19;97709.91;5056747;28;20006;-70
2021/05/13 06:00:59;;;;;;;;;;;;;;;17.70;52.11;97714.28;5055593;28;19917;-70
2021/05/13 06:03:25;;;;;;;;;;;;;;;17.70;52.36;97719.88;5055208;28;20411;-70
2021/05/13 06:05:50;;;;;;;;;;;;;;;17.69;52.20;97712.69;5048606;28;19952;-70
2021/05/13 06:08:16;;;;;;;;;;;;;;;17.69;52.37;97715.50;5060961;28;20004;-70
2021/05/13 06:10:41;;;;;;;;;;;;;;;17.69;52.24;97718.28;5053494;28;19951;-70
2021/05/13 06:13:07;;;;;;;;;;;;;;;17.69;52.06;97715.50;5053050;28;19928;-69
2021/05/13 06:15:32;;;;;;;;;;;;;;;17.69;52.46;97710.69;5059251;28;20299;-69
2021/05/13 06:17:57;;;;;;;;;;;;;;;17.74;52.40;97714.22;5072980;28;19927;-69
2021/05/13 06:20:24;;;;;;;;;;;;;;;17.74;52.32;97703.78;5052645;28;19930;-69
2021/05/13 06:22:49;;;;;;;;;;;;;;;17.73;52.08;97707.03;5049946;28;19913;-68
2021/05/13 06:25:14;;;;;;;;;;;;;;;17.71;52.28;97707.50;5059742;28;19913;-70
2021/05/13 06:27:40;;;;;;;;;;;;;;;17.71;52.28;97706.69;5034630;28;19966;-70
2021/05/13 06:30:05;;;;;;;;;;;;;;;17.70;52.37;97703.09;5050722;28;20297;-70
2021/05/13 06:32:30;;;;;;;;;;;;;;;17.70;52.50;97703.09;5050712;28;19944;-69
2021/05/13 06:34:56;;;;;;;;;;;;;;;17.70;52.38;97700.31;5052056;28;19921;-69
2021/05/13 06:37:21;;;;;;;;;;;;;;;17.69;52.46;97707.09;5052428;28;20011;-70
2021/05/13 06:39:46;;;;;;;;;;;;;;;17.70;52.47;97705.91;5051613;28;19972;-70
2021/05/13 06:42:14;;;;;;;;;;;;;;;17.69;52.35;97699.50;5058366;28;19920;-70
2021/05/13 06:44:39;;;;;;;;;;;;;;;17.78;51.98;97706.47;5059608;28;20153;-69
2021/05/13 06:47:04;;;;;;;;;;;;;;;17.74;52.09;97709.38;5051899;28;19967;-70
2021/05/13 06:49:30;;;;;;;;;;;;;;;17.76;52.20;97695.72;5052838;28;19928;-70
2021/05/13 06:51:55;;;;;;;;;;;;;;;17.78;52.11;97709.28;5052379;28;20635;-70
2021/05/13 06:54:20;;;;;;;;;;;;;;;17.76;52.13;97706.94;5057887;28;20347;-69
2021/05/13 06:56:47;;;;;;;;;;;;;;;17.75;52.38;97694.16;5050847;28;19998;-70
2021/05/13 06:59:12;;;;;;;;;;;;;;;17.85;52.06;97701.44;5050909;28;20270;-70
2021/05/13 07:01:37;;;;;;;;;;;;;;;17.84;51.98;97699.09;5051128;28;19924;-70
2021/05/13 07:04:04;;;;;;;;;;;;;;;17.81;51.92;97700.78;5049698;28;20357;-70
2021/05/13 07:06:33;;;;;;;;;;;;;;;17.80;52.28;97706.84;5050581;28;19920;-69
2021/05/13 07:08:59;;;;;;;;;;;;;;;17.78;52.28;97701.66;5035088;28;19935;-69
2021/05/13 07:11:24;;;;;;;;;;;;;;;17.78;52.55;97696.06;5052982;28;20015;-70
2021/05/13 07:13:49;;;;;;;;;;;;;;;17.78;52.34;97701.66;5053939;28;20372;-69
2021/05/13 07:16:14;;;;;;;;;;;;;;;17.77;52.39;97693.72;5060741;28;20468;-69
2021/05/13 07:18:39;;;;;;;;;;;;;;;17.77;52.70;97693.72;5054570;28;20308;-70
2021/05/13 07:21:05;;;;;;;;;;;;;;;17.78;52.56;97695.28;5051192;28;19956;-70
2021/05/13 07:23:30;;;;;;;;;;;;;;;17.77;52.49;97690.91;5050533;28;19916;-70
2021/05/13 07:25:55;;;;;;;;;;;;;;;17.78;52.46;97693.28;5055965;28;19917;-69
2021/05/13 07:28:20;;;;;;;;;;;;;;;17.78;52.17;97690.47;5055564;28;19920;-70
2021/05/13 07:30:46;;;;;;;;;;;;;;;17.78;52.25;97690.47;5053714;28;20399;-70
2021/05/13 07:33:11;;;;;;;;;;;;;;;17.79;52.33;97688.47;5054384;28;19938;-70
2021/05/13 07:35:36;;;;;;;;;;;;;;;17.78;52.40;97690.47;5054074;28;20035;-70
2021/05/13 07:38:02;;;;;;;;;;;;;;;17.79;52.40;97688.47;5051785;28;19960;-69
2021/05/13 07:40:28;;;;;;;;;;;;;;;17.78;52.40;97690.47;5053089;28;19913;-70
2021/05/13 07:42:53;;;;;;;;;;;;;;;17.78;52.64;97690.47;5054561;28;19917;-70
2021/05/13 07:45:18;;;;;;;;;;;;;;;17.76;52.66;97690.13;5052795;28;20774;-70
2021/05/13 07:47:44;;;;;;;;;;;;;;;17.76;52.58;97689.34;5054594;28;19923;-69
2021/05/13 07:50:10;;;;;;;;;;;;;;;17.76;52.62;97689.34;5053067;28;19921;-69
2021/05/13 07:52:35;;;;;;;;;;;;;;;17.76;52.61;97692.94;5052843;28;19912;-70
2021/05/13 07:55:02;;;;;;;;;;;;;;;17.76;52.67;97692.94;5051877;28;19928;-70
2021/05/13 07:57:27;;;;;;;;;;;;;;;17.76;52.52;97678.16;5053736;28;20349;-69
2021/05/13 07:59:52;;;;;;;;;;;;;;;17.76;52.11;97684.53;5049745;28;19917;-70
2021/05/13 08:02:17;;;;;;;;;;;;;;;17.78;52.08;97686.88;5060058;28;19916;-70
2021/05/13 08:04:43;;;;;;;;;;;;;;;17.80;51.93;97693.63;5052859;28;20384;-70
2021/05/13 08:07:08;;;;;;;;;;;;;;;17.80;51.89;97687.25;5059735;28;20420;-70
2021/05/13 08:09:33;;;;;;;;;;;;;;;17.86;51.67;97688.25;5065375;28;19924;-70
2021/05/13 08:11:58;;;;;;;;;;;;;;;17.87;51.84;97690.63;5059102;28;20335;-69
2021/05/13 08:14:24;;;;;;;;;;;;;;;17.88;51.68;97689.38;5060047;28;19912;-70
2021/05/13 08:16:49;;;;;;;;;;;;;;;17.89;51.66;97684.56;5057677;28;20030;-70
2021/05/13 08:19:14;;;;;;;;;;;;;;;17.89;51.64;97684.56;5061986;28;19928;-69
2021/05/13 08:21:40;;;;;;;;;;;;;;;17.90;51.59;97677.75;5062770;28;20416;-70
2021/05/13 08:24:05;;;;;;;;;;;;;;;17.92;51.91;97686.47;5061955;28;19916;-69
2021/05/13 08:26:30;;;;;;;;;;;;;;;17.92;51.78;97686.47;5063862;28;19913;-69
2021/05/13 08:28:56;;;;;;;;;;;;;;;17.93;51.63;97682.44;5059786;28;19916;-70
2021/05/13 08:31:21;;;;;;;;;;;;;;;17.94;51.88;97684.78;5061731;28;20023;-70
2021/05/13 08:33:46;;;;;;;;;;;;;;;17.94;51.96;97678.41;5058393;28;19979;-70
2021/05/13 08:36:11;;;;;;;;;;;;;;;17.95;51.95;97674.38;5064140;28;20324;-69
2021/05/13 08:38:36;;;;;;;;;;;;;;;17.96;51.96;97673.94;5060586;28;19917;-69
2021/05/13 08:41:02;;;;;;;;;;;;;;;17.97;52.13;97683.13;5060491;28;20011;-70
2021/05/13 08:43:28;;;;;;;;;;;;;;;17.98;51.55;97681.13;5057632;28;19968;-69
2021/05/13 08:45:55;;;;;;;;;;;;;;;17.99;52.00;97677.06;5052608;28;19913;-70
2021/05/13 08:48:21;;;;;;;;;;;;;;;17.99;51.85;97679.88;5059474;28;19917;-70
2021/05/13 08:50:46;;;;;;;;;;;;;;;18.01;51.69;97683.00;5060406;28;19931;-70
2021/05/13 08:53:11;;;;;;;;;;;;;;;18.01;51.66;97683.00;5059099;28;19955;-70
2021/05/13 08:55:37;;;;;;;;;;;;;;;18.01;51.80;97678.19;5058001;28;19916;-70
2021/05/13 08:58:02;;;;;;;;;;;;;;;18.03;51.59;97680.53;5057536;28;20105;-70
2021/05/13 09:00:27;;;;;;;;;;;;;;;18.04;51.52;97680.13;5055609;28;20019;-70
2021/05/13 09:02:53;;;;;;;;;;;;;;;18.04;51.51;97668.91;5059893;28;19928;-70
2021/05/13 09:05:18;;;;;;;;;;;;;;;18.06;51.22;97676.84;5055971;28;20004;-70
2021/05/13 09:07:43;;;;;;;;;;;;;;;18.06;51.23;97671.25;5059990;28;20037;-70
2021/05/13 09:10:12;;;;;;;;;;;;;;;18.08;51.23;97677.19;5060279;28;19939;-70
2021/05/13 09:12:42;;;;;;;;;;;;;;;18.08;51.14;97671.59;5050299;28;19923;-70
2021/05/13 09:15:10;;;;;;;;;;;;;;;18.08;51.27;97671.59;5054514;28;20455;-70
2021/05/13 09:17:36;;;;;;;;;;;;;;;18.08;51.13;97675.19;5062175;28;20280;-70
2021/05/13 09:20:01;;;;;;;;;;;;;;;18.09;51.09;97668.34;5058212;28;19921;-70
2021/05/13 09:22:27;;;;;;;;;;;;;;;18.11;51.22;97670.69;5058576;28;19919;-70
2021/05/13 09:24:58;;;;;;;;;;;;;;;18.10;51.06;97658.72;5062673;28;20392;-70
2021/05/13 09:27:24;;;;;;;;;;;;;;;18.11;51.06;97663.06;5057658;28;20384;-70
2021/05/13 09:30:01;;;;;;;;;;;;;;;18.12;51.00;97655.44;5059467;28;19925;-70
2021/05/13 09:32:26;;;;;;;;;;;;;;;18.12;51.18;97661.88;5060708;28;19920;-70
2021/05/13 09:34:52;;;;;;;;;;;;;;;18.13;50.99;97665.44;5057958;28;20372;-69
2021/05/13 09:37:17;;;;;;;;;;;;;;;18.11;51.04;97663.06;5057962;28;19917;-70
2021/05/13 09:39:49;;;;;;;;;;;;;;;18.12;51.01;97666.66;5057641;28;20019;-70
2021/05/13 09:42:18;;;;;;;;;;;;;;;18.12;51.08;97666.66;5058774;28;20433;-70
2021/05/13 09:44:44;;;;;;;;;;;;;;;18.13;51.02;97669.03;5062791;28;19919;-70
2021/05/13 09:47:13;;;;;;;;;;;;;;;18.12;50.99;97659.06;5048940;28;19912;-70
2021/05/13 09:49:53;;;;;;;;;;;;;;;18.12;51.19;97661.88;5061600;28;20426;-70
2021/05/13 09:52:37;;;;;;;;;;;;;;;18.12;51.10;97661.88;5060500;28;19919;-70
2021/05/13 09:55:08;;;;;;;;;;;;;;;18.14;50.88;97655.81;5059138;28;19913;-70
2021/05/13 09:57:34;;;;;;;;;;;;;;;18.13;51.15;97657.03;5060998;28;20793;-70
2021/05/13 09:59:59;;;;;;;;;;;;;;;18.14;51.07;97658.63;5059429;28;20387;-70
2021/05/13 10:02:24;;;;;;;;;;;;;;;18.14;51.05;97655.81;5058737;28;20376;-70
2021/05/13 10:04:49;;;;;;;;;;;;;;;18.13;51.07;97654.25;5056669;28;19917;-70
2021/05/13 10:07:14;;;;;;;;;;;;;;;18.14;50.86;97661.41;5056107;28;19944;-70
2021/05/13 10:09:40;;;;;;;;;;;;;;;18.14;51.14;97658.63;5056697;28;20542;-70
2021/05/13 10:12:05;;;;;;;;;;;;;;;18.14;51.26;97655.81;5055154;28;19908;-70
2021/05/13 10:14:31;;;;;;;;;;;;;;;18.12;51.23;97655.44;5053421;28;19917;-70
2021/05/13 10:16:57;;;;;;;;;;;;;;;18.13;51.48;97651.44;5055608;28;20525;-70
2021/05/13 10:19:42;;;;;;;;;;;;;;;18.13;51.46;97660.63;5057715;28;19923;-70
2021/05/13 10:22:08;;;;;;;;;;;;;;;18.12;51.51;97652.66;5054437;28;19960;-71
2021/05/13 10:24:34;;;;;;;;;;;;;;;18.14;51.39;97641.81;5052553;28;19919;-70
2021/05/13 10:26:59;;;;;;;;;;;;;;;18.18;51.19;97640.44;5055622;28;20007;-70
2021/05/13 10:29:27;;;;;;;;;;;;;;;18.18;51.37;97642.47;5054571;28;20342;-70
2021/05/13 10:32:15;;;;;;;;;;;;;;;18.19;51.29;97638.44;5056157;28;19924;-70
2021/05/13 10:34:41;;;;;;;;;;;;;;;18.19;51.04;97644.81;5057251;28;19924;-70
2021/05/13 10:37:13;;;;;;;;;;;;;;;18.19;51.15;97642.00;5057745;28;19994;-70
2021/05/13 10:39:58;;;;;;;;;;;;;;;18.19;51.02;97633.63;5055337;28;19983;-70
2021/05/13 10:42:30;;;;;;;;;;;;;;;18.19;51.14;97633.63;5058448;28;19916;-71
2021/05/13 10:44:55;;;;;;;;;;;;;;;18.20;50.97;97631.59;5052320;28;19923;-70
2021/05/13 10:47:30;;;;;;;;;;;;;;;18.21;51.19;97622.78;5047758;28;20507;-70
2021/05/13 10:49:55;;;;;;;;;;;;;;;18.22;51.00;97623.56;5051603;28;19924;-70
2021/05/13 10:52:37;;;;;;;;;;;;;;;18.21;50.99;97617.19;5057074;28;19913;-71
2021/05/13 10:55:05;;;;;;;;;;;;;;;18.21;50.99;97622.78;5053923;28;19912;-70
2021/05/13 10:57:49;;;;;;;;;;;;;;;18.22;51.08;97615.94;5052232;28;19917;-70
2021/05/13 11:00:17;;;;;;;;;;;;;;;18.21;50.96;97617.19;5063483;28;19977;-69
2021/05/13 11:02:44;;;;;;;;;;;;;;;18.21;50.91;97611.56;5052821;28;19966;-70
2021/05/13 11:05:32;;;;;;;;;;;;;;;18.22;51.10;97615.16;5056199;28;20368;-70
2021/05/13 11:08:04;;;;;;;;;;;;;;;18.23;50.97;97611.91;5054655;28;20011;-70
2021/05/13 11:10:47;;;;;;;;;;;;;;;18.23;50.92;97609.09;5054800;28;19913;-70
2021/05/13 11:13:13;;;;;;;;;;;;;;;18.24;50.99;97598.69;5055608;28;19924;-70
2021/05/13 11:15:38;;;;;;;;;;;;;;;18.25;50.96;97591.84;5051813;28;19916;-70
2021/05/13 11:18:06;;;;;;;;;;;;;;;18.26;50.79;97596.22;5052852;28;19912;-69
2021/05/13 11:20:32;;;;;;;;;;;;;;;18.28;50.89;97599.34;5051980;28;19920;-70
2021/05/13 11:23:16;;;;;;;;;;;;;;;18.28;50.96;97602.13;5055147;28;19913;-70
2021/05/13 11:25:45;;;;;;;;;;;;;;;18.29;50.85;97594.50;5055003;28;20285;-70
2021/05/13 11:28:16;;;;;;;;;;;;;;;18.29;50.87;97592.53;5052436;28;19920;-70
2021/05/13 11:30:41;;;;;;;;;;;;;;;18.29;50.87;97592.53;5055525;28;20016;-70
2021/05/13 11:33:08;;;;;;;;;;;;;;;18.31;50.79;97586.47;5053981;28;20417;-70
2021/05/13 11:35:33;;;;;;;;;;;;;;;18.31;50.81;97589.28;5054526;28;19920;-70
2021/05/13 11:37:59;;;;;;;;;;;;;;;18.32;50.95;97588.81;5053972;28;19917;-71
2021/05/13 11:40:27;;;;;;;;;;;;;;;18.32;50.97;97586.00;5053754;28;19924;-69
2021/05/13 11:43:12;;;;;;;;;;;;;;;18.33;50.79;97586.78;5053414;28;19912;-70
2021/05/13 11:45:37;;;;;;;;;;;;;;;18.34;50.87;97589.13;5055832;28;19917;-71
2021/05/13 11:48:03;;;;;;;;;;;;;;;18.34;50.88;97582.75;5057196;28;19917;-70
2021/05/13 11:50:29;;;;;;;;;;;;;;;18.34;50.75;97577.16;5038057;28;19920;-69
2021/05/13 11:53:10;;;;;;;;;;;;;;;18.34;50.87;97580.75;5055505;28;19921;-70
2021/05/13 11:55:35;;;;;;;;;;;;;;;18.34;50.87;97577.94;5055523;28;20870;-70
2021/05/13 11:58:01;;;;;;;;;;;;;;;18.36;50.93;97580.28;5053530;28;19939;-69
2021/05/13 12:00:26;;;;;;;;;;;;;;;18.36;50.90;97575.47;5053565;28;19916;-71
2021/05/13 12:03:06;;;;;;;;;;;;;;;18.36;50.89;97574.69;5069119;28;19928;-70
2021/05/13 12:05:34;;;;;;;;;;;;;;;18.36;50.79;97572.66;5053900;28;19923;-70
2021/05/13 12:08:06;;;;;;;;;;;;;;;18.37;50.74;97567.84;5054711;28;19916;-70
2021/05/13 12:10:31;;;;;;;;;;;;;;;18.36;50.87;97569.84;5053102;28;20007;-70
2021/05/13 12:13:02;;;;;;;;;;;;;;;18.36;50.92;97572.66;5055269;28;19995;-70
2021/05/13 12:15:28;;;;;;;;;;;;;;;18.38;50.76;97575.03;5052194;28;19948;-71
2021/05/13 12:17:53;;;;;;;;;;;;;;;18.38;50.73;97575.81;5054346;28;19978;-69
2021/05/13 12:20:18;;;;;;;;;;;;;;;18.38;50.84;97583.44;5056310;28;19952;-70
2021/05/13 12:22:44;;;;;;;;;;;;;;;18.38;50.82;97572.22;5053722;28;19913;-70
2021/05/13 12:25:09;;;;;;;;;;;;;;;18.38;50.97;97569.44;5053821;28;19917;-71
2021/05/13 12:27:35;;;;;;;;;;;;;;;18.36;50.79;97569.06;5053349;28;20310;-71
2021/05/13 12:30:00;;;;;;;;;;;;;;;18.38;50.71;97577.84;5051937;28;20293;-70
2021/05/13 12:32:29;;;;;;;;;;;;;;;18.36;50.83;97567.06;5055784;28;19939;-70
2021/05/13 12:34:54;;;;;;;;;;;;;;;18.35;50.94;97579.50;5052816;28;19913;-69
2021/05/13 12:37:19;;;;;;;;;;;;;;;18.36;50.67;97583.09;5056195;28;19970;-71
2021/05/13 12:39:45;;;;;;;;;;;;;;;18.35;51.02;97570.31;5059110;28;20375;-70
2021/05/13 12:42:26;;;;;;;;;;;;;;;18.35;50.97;97570.31;5053565;28;20361;-70
2021/05/13 12:45:10;;;;;;;;;;;;;;;18.34;50.69;97566.72;5051703;28;19971;-71
2021/05/13 12:47:35;;;;;;;;;;;;;;;18.39;50.63;97557.00;5041069;28;19967;-70
2021/05/13 12:50:01;;;;;;;;;;;;;;;18.38;50.68;97561.81;5051263;28;19916;-71
2021/05/13 12:52:26;;;;;;;;;;;;;;;18.37;50.66;97562.25;5051738;28;19924;-70